UKLL/LWO METAR and TAF weather

Enter ICAO airport designator
Station Type Date Time Source
UKLL METAR 2019/12/08 11:30 UTC NOAA

UKLL 081130Z 23004MPS 200V260 CAVOK 07/02 Q1013 R13/CLRD// NOSIG


Station Type Date Time Source
UKLL Decoded METAR 2019/12/08 11:30 UTC NOAA

L'Viv, Ukraine (UKLL) 49-49N 023-57E 323M
Dec 08, 2019 - 06:30 AM EST / 2019.12.08 1130 UTC
Wind: from the SW (230 degrees) at 9 MPH (8 KT) (direction variable):0
Visibility: greater than 7 mile(s):0
Temperature: 44 F (7 C)
Dew Point: 35 F (2 C)
Relative Humidity: 70%
Pressure (altimeter): 29.91 in. Hg (1013 hPa)
ob: UKLL 081130Z 23004MPS 200V260 CAVOK 07/02 Q1013 R13/CLRD// NOSIG
cycle: 11

Station Type Date Time Source
UKLL TAF 2019/12/08 12:15 UTC NOAA

TAF UKLL 081103Z 0812/0912 24007G13MPS 9999 BKN030 TX08/0812Z TN04/0903Z
TEMPO 0900/0906 22006G12MPS 2100 -SHRA BR SCT003 BKN007 BKN025CB

Example: see airport list